sensor_id;sensor_type;location;lat;lon;timestamp;P1;durP1;ratioP1;P2;durP2;ratioP2
53040;SDS011;39326;42.650;23.248;2022-10-13T00:00:41;8.87;;;8.00;;
53040;SDS011;39326;42.650;23.248;2022-10-13T00:03:09;9.33;;;7.80;;
53040;SDS011;39326;42.650;23.248;2022-10-13T00:05:38;8.40;;;7.60;;
53040;SDS011;39326;42.650;23.248;2022-10-13T00:08:08;8.83;;;7.90;;
53040;SDS011;39326;42.650;23.248;2022-10-13T00:10:36;7.60;;;6.90;;
53040;SDS011;39326;42.650;23.248;2022-10-13T00:13:03;7.83;;;7.13;;
53040;SDS011;39326;42.650;23.248;2022-10-13T00:15:28;7.77;;;6.57;;
53040;SDS011;39326;42.650;23.248;2022-10-13T00:17:54;6.97;;;6.37;;
53040;SDS011;39326;42.650;23.248;2022-10-13T00:20:19;6.20;;;5.60;;
53040;SDS011;39326;42.650;23.248;2022-10-13T00:22:45;5.40;;;4.90;;
53040;SDS011;39326;42.650;23.248;2022-10-13T00:25:10;5.63;;;4.53;;
53040;SDS011;39326;42.650;23.248;2022-10-13T00:27:35;7.83;;;5.20;;
53040;SDS011;39326;42.650;23.248;2022-10-13T00:30:01;5.20;;;4.70;;
53040;SDS011;39326;42.650;23.248;2022-10-13T00:32:26;6.27;;;4.80;;
53040;SDS011;39326;42.650;23.248;2022-10-13T00:34:53;4.90;;;4.40;;
53040;SDS011;39326;42.650;23.248;2022-10-13T00:37:18;5.20;;;4.70;;
53040;SDS011;39326;42.650;23.248;2022-10-13T00:39:44;8.30;;;5.40;;
53040;SDS011;39326;42.650;23.248;2022-10-13T00:42:10;5.97;;;5.43;;
53040;SDS011;39326;42.650;23.248;2022-10-13T00:44:57;5.93;;;5.37;;
53040;SDS011;39326;42.650;23.248;2022-10-13T00:47:34;5.93;;;5.43;;
53040;SDS011;39326;42.650;23.248;2022-10-13T00:50:03;6.07;;;5.47;;
53040;SDS011;39326;42.650;23.248;2022-10-13T00:52:31;5.97;;;5.17;;
53040;SDS011;39326;42.650;23.248;2022-10-13T00:54:57;5.50;;;4.97;;
53040;SDS011;39326;42.650;23.248;2022-10-13T00:57:24;7.40;;;6.17;;
53040;SDS011;39326;42.650;23.248;2022-10-13T00:59:50;6.70;;;6.10;;
53040;SDS011;39326;42.650;23.248;2022-10-13T01:02:15;6.23;;;5.63;;
53040;SDS011;39326;42.650;23.248;2022-10-13T01:04:43;5.70;;;5.20;;
53040;SDS011;39326;42.650;23.248;2022-10-13T01:07:12;7.87;;;5.40;;
53040;SDS011;39326;42.650;23.248;2022-10-13T01:09:40;8.50;;;6.77;;
53040;SDS011;39326;42.650;23.248;2022-10-13T01:26:09;7.77;;;7.03;;
53040;SDS011;39326;42.650;23.248;2022-10-13T01:31:49;7.30;;;6.60;;
53040;SDS011;39326;42.650;23.248;2022-10-13T01:36:55;11.43;;;8.67;;
53040;SDS011;39326;42.650;23.248;2022-10-13T01:39:44;8.60;;;7.80;;
53040;SDS011;39326;42.650;23.248;2022-10-13T01:42:23;10.13;;;8.40;;
53040;SDS011;39326;42.650;23.248;2022-10-13T01:44:57;10.23;;;9.23;;
53040;SDS011;39326;42.650;23.248;2022-10-13T01:47:25;12.03;;;9.00;;
53040;SDS011;39326;42.650;23.248;2022-10-13T01:49:53;9.40;;;8.43;;
53040;SDS011;39326;42.650;23.248;2022-10-13T01:52:20;9.27;;;8.37;;
53040;SDS011;39326;42.650;23.248;2022-10-13T01:54:50;10.57;;;8.23;;
53040;SDS011;39326;42.650;23.248;2022-10-13T01:57:31;10.20;;;8.17;;
53040;SDS011;39326;42.650;23.248;2022-10-13T02:00:00;8.40;;;7.33;;
53040;SDS011;39326;42.650;23.248;2022-10-13T02:02:31;9.13;;;8.30;;
53040;SDS011;39326;42.650;23.248;2022-10-13T02:05:10;8.20;;;7.40;;
53040;SDS011;39326;42.650;23.248;2022-10-13T02:07:52;7.57;;;6.87;;
53040;SDS011;39326;42.650;23.248;2022-10-13T02:12:59;7.43;;;6.73;;
53040;SDS011;39326;42.650;23.248;2022-10-13T02:15:28;7.57;;;6.87;;
53040;SDS011;39326;42.650;23.248;2022-10-13T02:17:59;7.57;;;6.60;;
53040;SDS011;39326;42.650;23.248;2022-10-13T02:20:26;8.27;;;6.83;;
53040;SDS011;39326;42.650;23.248;2022-10-13T02:22:56;7.27;;;6.57;;
53040;SDS011;39326;42.650;23.248;2022-10-13T02:25:27;9.57;;;7.20;;
53040;SDS011;39326;42.650;23.248;2022-10-13T02:27:53;6.97;;;6.10;;
53040;SDS011;39326;42.650;23.248;2022-10-13T02:30:23;7.60;;;6.30;;
53040;SDS011;39326;42.650;23.248;2022-10-13T02:32:51;9.07;;;8.10;;
53040;SDS011;39326;42.650;23.248;2022-10-13T02:35:16;9.03;;;8.23;;
53040;SDS011;39326;42.650;23.248;2022-10-13T02:37:41;9.80;;;8.80;;
53040;SDS011;39326;42.650;23.248;2022-10-13T02:40:07;9.30;;;8.47;;
53040;SDS011;39326;42.650;23.248;2022-10-13T02:42:33;11.10;;;8.30;;
53040;SDS011;39326;42.650;23.248;2022-10-13T02:44:58;10.70;;;9.60;;
53040;SDS011;39326;42.650;23.248;2022-10-13T02:47:24;9.83;;;8.67;;
53040;SDS011;39326;42.650;23.248;2022-10-13T02:49:49;12.13;;;10.27;;
53040;SDS011;39326;42.650;23.248;2022-10-13T02:52:14;12.90;;;11.37;;
53040;SDS011;39326;42.650;23.248;2022-10-13T02:54:40;14.50;;;12.73;;
53040;SDS011;39326;42.650;23.248;2022-10-13T02:57:05;17.00;;;14.73;;
53040;SDS011;39326;42.650;23.248;2022-10-13T02:59:30;17.27;;;15.57;;
53040;SDS011;39326;42.650;23.248;2022-10-13T03:01:56;16.77;;;15.00;;
53040;SDS011;39326;42.650;23.248;2022-10-13T03:04:21;14.43;;;13.00;;
53040;SDS011;39326;42.650;23.248;2022-10-13T03:06:47;14.67;;;13.07;;
53040;SDS011;39326;42.650;23.248;2022-10-13T03:09:12;13.57;;;12.27;;
53040;SDS011;39326;42.650;23.248;2022-10-13T03:11:37;15.10;;;13.60;;
53040;SDS011;39326;42.650;23.248;2022-10-13T03:14:03;15.90;;;14.10;;
53040;SDS011;39326;42.650;23.248;2022-10-13T03:16:28;13.73;;;12.40;;
53040;SDS011;39326;42.650;23.248;2022-10-13T03:18:54;16.87;;;14.00;;
53040;SDS011;39326;42.650;23.248;2022-10-13T03:21:20;15.60;;;14.10;;
53040;SDS011;39326;42.650;23.248;2022-10-13T03:23:45;19.20;;;15.17;;
53040;SDS011;39326;42.650;23.248;2022-10-13T03:26:11;16.27;;;14.30;;
53040;SDS011;39326;42.650;23.248;2022-10-13T03:28:36;15.40;;;13.90;;
53040;SDS011;39326;42.650;23.248;2022-10-13T03:31:05;17.17;;;15.37;;
53040;SDS011;39326;42.650;23.248;2022-10-13T03:33:33;15.53;;;13.93;;
53040;SDS011;39326;42.650;23.248;2022-10-13T03:35:59;15.83;;;14.23;;
53040;SDS011;39326;42.650;23.248;2022-10-13T03:38:26;14.60;;;13.10;;
53040;SDS011;39326;42.650;23.248;2022-10-13T03:40:54;15.40;;;13.63;;
53040;SDS011;39326;42.650;23.248;2022-10-13T03:43:20;14.47;;;13.07;;
53040;SDS011;39326;42.650;23.248;2022-10-13T03:45:55;14.87;;;13.20;;
53040;SDS011;39326;42.650;23.248;2022-10-13T03:48:22;17.10;;;13.27;;
53040;SDS011;39326;42.650;23.248;2022-10-13T03:50:47;13.63;;;11.87;;
53040;SDS011;39326;42.650;23.248;2022-10-13T03:53:13;16.10;;;14.30;;
53040;SDS011;39326;42.650;23.248;2022-10-13T03:55:38;14.13;;;12.77;;
53040;SDS011;39326;42.650;23.248;2022-10-13T03:58:04;13.27;;;12.03;;
53040;SDS011;39326;42.650;23.248;2022-10-13T04:00:29;12.13;;;10.93;;
53040;SDS011;39326;42.650;23.248;2022-10-13T04:02:54;10.77;;;9.60;;
53040;SDS011;39326;42.650;23.248;2022-10-13T04:05:20;9.90;;;8.93;;
53040;SDS011;39326;42.650;23.248;2022-10-13T04:07:45;9.90;;;8.90;;
53040;SDS011;39326;42.650;23.248;2022-10-13T04:10:10;10.50;;;9.13;;
53040;SDS011;39326;42.650;23.248;2022-10-13T04:12:36;11.03;;;9.00;;
53040;SDS011;39326;42.650;23.248;2022-10-13T04:15:03;9.00;;;8.10;;
53040;SDS011;39326;42.650;23.248;2022-10-13T04:17:28;10.10;;;8.37;;
53040;SDS011;39326;42.650;23.248;2022-10-13T04:19:54;11.20;;;8.50;;
53040;SDS011;39326;42.650;23.248;2022-10-13T04:22:19;8.33;;;7.63;;
53040;SDS011;39326;42.650;23.248;2022-10-13T04:24:45;8.60;;;7.70;;
53040;SDS011;39326;42.650;23.248;2022-10-13T04:27:10;9.03;;;8.20;;
53040;SDS011;39326;42.650;23.248;2022-10-13T04:29:36;9.80;;;8.07;;
53040;SDS011;39326;42.650;23.248;2022-10-13T04:32:01;12.97;;;8.30;;
53040;SDS011;39326;42.650;23.248;2022-10-13T04:34:27;9.67;;;8.10;;
53040;SDS011;39326;42.650;23.248;2022-10-13T04:36:52;11.67;;;8.60;;
53040;SDS011;39326;42.650;23.248;2022-10-13T04:39:18;14.80;;;8.90;;
53040;SDS011;39326;42.650;23.248;2022-10-13T04:41:44;9.73;;;8.67;;
53040;SDS011;39326;42.650;23.248;2022-10-13T04:44:09;9.13;;;8.20;;
53040;SDS011;39326;42.650;23.248;2022-10-13T04:46:34;8.83;;;7.93;;
53040;SDS011;39326;42.650;23.248;2022-10-13T04:49:00;8.27;;;7.47;;
53040;SDS011;39326;42.650;23.248;2022-10-13T04:51:25;10.70;;;9.60;;
53040;SDS011;39326;42.650;23.248;2022-10-13T04:53:59;12.20;;;9.40;;
53040;SDS011;39326;42.650;23.248;2022-10-13T04:56:26;11.43;;;9.10;;
53040;SDS011;39326;42.650;23.248;2022-10-13T04:58:52;9.90;;;9.00;;
53040;SDS011;39326;42.650;23.248;2022-10-13T05:01:19;11.20;;;9.43;;
53040;SDS011;39326;42.650;23.248;2022-10-13T05:03:46;9.63;;;8.67;;
53040;SDS011;39326;42.650;23.248;2022-10-13T05:06:14;12.80;;;10.97;;
53040;SDS011;39326;42.650;23.248;2022-10-13T05:08:42;10.83;;;9.53;;
53040;SDS011;39326;42.650;23.248;2022-10-13T05:11:07;10.07;;;9.00;;
53040;SDS011;39326;42.650;23.248;2022-10-13T05:13:33;12.47;;;9.93;;
53040;SDS011;39326;42.650;23.248;2022-10-13T05:15:59;11.87;;;10.00;;
53040;SDS011;39326;42.650;23.248;2022-10-13T05:18:29;10.87;;;9.80;;
53040;SDS011;39326;42.650;23.248;2022-10-13T05:20:54;11.47;;;9.50;;
53040;SDS011;39326;42.650;23.248;2022-10-13T05:23:20;10.53;;;9.43;;
53040;SDS011;39326;42.650;23.248;2022-10-13T05:25:45;14.77;;;10.77;;
53040;SDS011;39326;42.650;23.248;2022-10-13T05:28:10;13.37;;;11.97;;
53040;SDS011;39326;42.650;23.248;2022-10-13T05:30:36;13.50;;;12.20;;
53040;SDS011;39326;42.650;23.248;2022-10-13T05:33:01;17.77;;;14.03;;
53040;SDS011;39326;42.650;23.248;2022-10-13T05:35:27;15.37;;;13.80;;
53040;SDS011;39326;42.650;23.248;2022-10-13T05:37:53;15.80;;;14.27;;
53040;SDS011;39326;42.650;23.248;2022-10-13T05:40:18;17.00;;;15.40;;
53040;SDS011;39326;42.650;23.248;2022-10-13T05:42:48;19.87;;;17.80;;
53040;SDS011;39326;42.650;23.248;2022-10-13T05:45:14;19.67;;;17.83;;
53040;SDS011;39326;42.650;23.248;2022-10-13T05:47:41;21.53;;;19.43;;
53040;SDS011;39326;42.650;23.248;2022-10-13T05:50:06;21.13;;;18.87;;
53040;SDS011;39326;42.650;23.248;2022-10-13T05:52:32;20.97;;;18.80;;
53040;SDS011;39326;42.650;23.248;2022-10-13T05:54:59;20.73;;;18.20;;
53040;SDS011;39326;42.650;23.248;2022-10-13T05:57:36;20.73;;;18.73;;
53040;SDS011;39326;42.650;23.248;2022-10-13T06:00:14;19.83;;;17.87;;
53040;SDS011;39326;42.650;23.248;2022-10-13T06:05:14;19.77;;;17.87;;
53040;SDS011;39326;42.650;23.248;2022-10-13T06:07:41;20.13;;;18.27;;
53040;SDS011;39326;42.650;23.248;2022-10-13T06:10:08;20.00;;;17.90;;
53040;SDS011;39326;42.650;23.248;2022-10-13T06:12:34;20.60;;;18.40;;
53040;SDS011;39326;42.650;23.248;2022-10-13T06:15:00;19.53;;;17.63;;
53040;SDS011;39326;42.650;23.248;2022-10-13T06:17:25;19.27;;;17.33;;
53040;SDS011;39326;42.650;23.248;2022-10-13T06:19:50;19.93;;;17.83;;
53040;SDS011;39326;42.650;23.248;2022-10-13T06:22:16;23.47;;;19.70;;
53040;SDS011;39326;42.650;23.248;2022-10-13T06:24:41;21.53;;;19.33;;
53040;SDS011;39326;42.650;23.248;2022-10-13T06:27:07;23.73;;;21.30;;
53040;SDS011;39326;42.650;23.248;2022-10-13T06:29:33;25.10;;;22.50;;
53040;SDS011;39326;42.650;23.248;2022-10-13T06:31:58;23.87;;;21.33;;
53040;SDS011;39326;42.650;23.248;2022-10-13T06:34:24;24.40;;;21.80;;
53040;SDS011;39326;42.650;23.248;2022-10-13T06:36:49;24.20;;;21.70;;
53040;SDS011;39326;42.650;23.248;2022-10-13T06:39:14;23.40;;;20.80;;
53040;SDS011;39326;42.650;23.248;2022-10-13T06:41:40;24.33;;;20.97;;
53040;SDS011;39326;42.650;23.248;2022-10-13T06:44:05;23.03;;;20.57;;
53040;SDS011;39326;42.650;23.248;2022-10-13T06:46:31;22.90;;;20.63;;
53040;SDS011;39326;42.650;23.248;2022-10-13T06:48:56;24.07;;;21.53;;
53040;SDS011;39326;42.650;23.248;2022-10-13T06:51:21;23.93;;;20.37;;
53040;SDS011;39326;42.650;23.248;2022-10-13T06:53:47;24.47;;;22.10;;
53040;SDS011;39326;42.650;23.248;2022-10-13T06:56:12;24.83;;;22.23;;
53040;SDS011;39326;42.650;23.248;2022-10-13T06:58:38;28.67;;;22.80;;
53040;SDS011;39326;42.650;23.248;2022-10-13T07:01:04;24.37;;;21.97;;
53040;SDS011;39326;42.650;23.248;2022-10-13T07:03:30;23.77;;;21.23;;
53040;SDS011;39326;42.650;23.248;2022-10-13T07:06:00;24.33;;;21.77;;
53040;SDS011;39326;42.650;23.248;2022-10-13T07:08:30;24.27;;;21.87;;
53040;SDS011;39326;42.650;23.248;2022-10-13T07:10:56;24.97;;;22.43;;
53040;SDS011;39326;42.650;23.248;2022-10-13T07:13:21;23.97;;;21.20;;
53040;SDS011;39326;42.650;23.248;2022-10-13T07:15:47;24.10;;;21.43;;
53040;SDS011;39326;42.650;23.248;2022-10-13T07:18:12;21.93;;;19.60;;
53040;SDS011;39326;42.650;23.248;2022-10-13T07:20:37;24.07;;;21.47;;
53040;SDS011;39326;42.650;23.248;2022-10-13T07:23:03;24.87;;;22.37;;
53040;SDS011;39326;42.650;23.248;2022-10-13T07:25:28;23.30;;;20.60;;
53040;SDS011;39326;42.650;23.248;2022-10-13T07:27:54;24.33;;;21.73;;
53040;SDS011;39326;42.650;23.248;2022-10-13T07:30:19;23.23;;;20.90;;
53040;SDS011;39326;42.650;23.248;2022-10-13T07:32:45;23.67;;;21.37;;
53040;SDS011;39326;42.650;23.248;2022-10-13T07:35:10;23.73;;;20.17;;
53040;SDS011;39326;42.650;23.248;2022-10-13T07:37:37;23.27;;;20.97;;
53040;SDS011;39326;42.650;23.248;2022-10-13T07:40:04;22.20;;;19.93;;
53040;SDS011;39326;42.650;23.248;2022-10-13T07:42:31;22.83;;;20.30;;
53040;SDS011;39326;42.650;23.248;2022-10-13T07:44:56;22.40;;;20.20;;
53040;SDS011;39326;42.650;23.248;2022-10-13T07:47:22;22.63;;;20.10;;
53040;SDS011;39326;42.650;23.248;2022-10-13T07:49:47;25.07;;;22.60;;
53040;SDS011;39326;42.650;23.248;2022-10-13T07:52:13;25.37;;;22.73;;
53040;SDS011;39326;42.650;23.248;2022-10-13T07:54:38;25.30;;;22.70;;
53040;SDS011;39326;42.650;23.248;2022-10-13T07:57:04;24.63;;;22.10;;
53040;SDS011;39326;42.650;23.248;2022-10-13T07:59:30;23.90;;;21.53;;
53040;SDS011;39326;42.650;23.248;2022-10-13T08:01:57;25.97;;;23.17;;
53040;SDS011;39326;42.650;23.248;2022-10-13T08:04:24;25.30;;;22.80;;
53040;SDS011;39326;42.650;23.248;2022-10-13T08:06:53;25.53;;;22.80;;
53040;SDS011;39326;42.650;23.248;2022-10-13T08:09:19;24.80;;;22.30;;
53040;SDS011;39326;42.650;23.248;2022-10-13T08:11:44;26.07;;;23.37;;
53040;SDS011;39326;42.650;23.248;2022-10-13T08:14:10;25.90;;;23.33;;
53040;SDS011;39326;42.650;23.248;2022-10-13T08:16:37;26.33;;;23.73;;
53040;SDS011;39326;42.650;23.248;2022-10-13T08:19:04;25.07;;;22.67;;
53040;SDS011;39326;42.650;23.248;2022-10-13T08:21:29;25.07;;;22.53;;
53040;SDS011;39326;42.650;23.248;2022-10-13T08:23:55;25.23;;;22.73;;
53040;SDS011;39326;42.650;23.248;2022-10-13T08:26:24;26.07;;;23.50;;
53040;SDS011;39326;42.650;23.248;2022-10-13T08:28:52;24.57;;;22.13;;
53040;SDS011;39326;42.650;23.248;2022-10-13T08:31:18;23.97;;;21.57;;
53040;SDS011;39326;42.650;23.248;2022-10-13T08:33:44;25.53;;;22.97;;
53040;SDS011;39326;42.650;23.248;2022-10-13T08:36:12;25.67;;;23.10;;
53040;SDS011;39326;42.650;23.248;2022-10-13T08:38:38;24.43;;;22.10;;
53040;SDS011;39326;42.650;23.248;2022-10-13T08:41:11;24.30;;;21.73;;
53040;SDS011;39326;42.650;23.248;2022-10-13T08:43:41;22.80;;;20.53;;
53040;SDS011;39326;42.650;23.248;2022-10-13T08:46:12;23.30;;;20.90;;
53040;SDS011;39326;42.650;23.248;2022-10-13T08:48:44;22.30;;;19.93;;
53040;SDS011;39326;42.650;23.248;2022-10-13T08:51:10;25.60;;;22.93;;
53040;SDS011;39326;42.650;23.248;2022-10-13T08:53:42;24.70;;;22.10;;
53040;SDS011;39326;42.650;23.248;2022-10-13T08:56:21;25.73;;;23.23;;
53040;SDS011;39326;42.650;23.248;2022-10-13T08:58:50;26.57;;;23.87;;
53040;SDS011;39326;42.650;23.248;2022-10-13T09:01:18;25.73;;;23.13;;
53040;SDS011;39326;42.650;23.248;2022-10-13T09:03:52;25.37;;;22.70;;
53040;SDS011;39326;42.650;23.248;2022-10-13T09:08:54;25.80;;;23.37;;
53040;SDS011;39326;42.650;23.248;2022-10-13T09:11:21;25.50;;;23.00;;
53040;SDS011;39326;42.650;23.248;2022-10-13T09:13:52;25.50;;;22.97;;
53040;SDS011;39326;42.650;23.248;2022-10-13T09:16:53;25.03;;;22.43;;
53040;SDS011;39326;42.650;23.248;2022-10-13T09:19:16;27.53;;;24.90;;
53040;SDS011;39326;42.650;23.248;2022-10-13T09:21:47;27.30;;;24.53;;
53040;SDS011;39326;42.650;23.248;2022-10-13T09:24:18;27.27;;;24.47;;
53040;SDS011;39326;42.650;23.248;2022-10-13T09:26:46;27.30;;;24.47;;
53040;SDS011;39326;42.650;23.248;2022-10-13T09:29:23;27.40;;;24.53;;
53040;SDS011;39326;42.650;23.248;2022-10-13T09:31:50;28.40;;;25.40;;
53040;SDS011;39326;42.650;23.248;2022-10-13T09:34:31;27.70;;;25.10;;
53040;SDS011;39326;42.650;23.248;2022-10-13T09:39:25;28.87;;;25.93;;
53040;SDS011;39326;42.650;23.248;2022-10-13T09:41:51;28.17;;;25.57;;
53040;SDS011;39326;42.650;23.248;2022-10-13T09:44:32;29.50;;;26.60;;
53040;SDS011;39326;42.650;23.248;2022-10-13T09:47:00;31.93;;;28.57;;
53040;SDS011;39326;42.650;23.248;2022-10-13T09:49:43;28.23;;;25.27;;
53040;SDS011;39326;42.650;23.248;2022-10-13T09:57:19;26.40;;;23.70;;
53040;SDS011;39326;42.650;23.248;2022-10-13T09:59:53;26.60;;;23.80;;
53040;SDS011;39326;42.650;23.248;2022-10-13T10:02:35;27.77;;;24.87;;
53040;SDS011;39326;42.650;23.248;2022-10-13T10:07:57;26.20;;;23.50;;
53040;SDS011;39326;42.650;23.248;2022-10-13T10:10:31;26.77;;;23.93;;
53040;SDS011;39326;42.650;23.248;2022-10-13T10:12:59;25.90;;;23.23;;
53040;SDS011;39326;42.650;23.248;2022-10-13T10:15:29;27.23;;;24.60;;
53040;SDS011;39326;42.650;23.248;2022-10-13T10:17:59;25.70;;;22.87;;
53040;SDS011;39326;42.650;23.248;2022-10-13T10:25:48;24.70;;;22.20;;
53040;SDS011;39326;42.650;23.248;2022-10-13T10:33:28;23.90;;;21.40;;
53040;SDS011;39326;42.650;23.248;2022-10-13T10:36:07;24.47;;;22.10;;
53040;SDS011;39326;42.650;23.248;2022-10-13T10:38:44;23.50;;;21.20;;
53040;SDS011;39326;42.650;23.248;2022-10-13T10:44:08;24.97;;;22.07;;
53040;SDS011;39326;42.650;23.248;2022-10-13T10:46:40;24.03;;;21.63;;
53040;SDS011;39326;42.650;23.248;2022-10-13T10:49:15;24.90;;;22.10;;
53040;SDS011;39326;42.650;23.248;2022-10-13T10:51:47;23.10;;;20.43;;
53040;SDS011;39326;42.650;23.248;2022-10-13T11:05:08;23.23;;;20.93;;
53040;SDS011;39326;42.650;23.248;2022-10-13T11:10:14;22.07;;;20.00;;
53040;SDS011;39326;42.650;23.248;2022-10-13T11:15:24;22.60;;;20.00;;
53040;SDS011;39326;42.650;23.248;2022-10-13T11:17:52;21.33;;;19.20;;
53040;SDS011;39326;42.650;23.248;2022-10-13T11:25:37;18.47;;;16.60;;
53040;SDS011;39326;42.650;23.248;2022-10-13T11:55:50;17.40;;;15.57;;
53040;SDS011;39326;42.650;23.248;2022-10-13T12:00:51;17.73;;;16.05;;
53040;SDS011;39326;42.650;23.248;2022-10-13T12:03:24;18.98;;;16.98;;
53040;SDS011;39326;42.650;23.248;2022-10-13T12:05:52;19.53;;;17.50;;
53040;SDS011;39326;42.650;23.248;2022-10-13T12:08:19;17.65;;;15.85;;
53040;SDS011;39326;42.650;23.248;2022-10-13T12:10:46;17.33;;;15.93;;
53040;SDS011;39326;42.650;23.248;2022-10-13T12:13:23;16.87;;;15.37;;
53040;SDS011;39326;42.650;23.248;2022-10-13T12:16:03;18.07;;;16.23;;
53040;SDS011;39326;42.650;23.248;2022-10-13T12:18:37;16.40;;;14.80;;
53040;SDS011;39326;42.650;23.248;2022-10-13T12:23:37;17.40;;;15.60;;
53040;SDS011;39326;42.650;23.248;2022-10-13T12:26:02;16.87;;;15.27;;
53040;SDS011;39326;42.650;23.248;2022-10-13T12:28:29;16.67;;;15.10;;
53040;SDS011;39326;42.650;23.248;2022-10-13T12:31:16;14.82;;;13.48;;
53040;SDS011;39326;42.650;23.248;2022-10-13T12:33:58;16.90;;;14.57;;
53040;SDS011;39326;42.650;23.248;2022-10-13T12:36:31;15.17;;;13.83;;
53040;SDS011;39326;42.650;23.248;2022-10-13T12:39:03;15.93;;;14.33;;
53040;SDS011;39326;42.650;23.248;2022-10-13T12:41:33;15.70;;;14.23;;
53040;SDS011;39326;42.650;23.248;2022-10-13T12:44:02;15.52;;;14.02;;
53040;SDS011;39326;42.650;23.248;2022-10-13T12:46:39;14.73;;;13.40;;
53040;SDS011;39326;42.650;23.248;2022-10-13T12:51:41;15.35;;;13.82;;
53040;SDS011;39326;42.650;23.248;2022-10-13T12:54:14;14.07;;;12.43;;
53040;SDS011;39326;42.650;23.248;2022-10-13T12:56:43;14.70;;;13.30;;
53040;SDS011;39326;42.650;23.248;2022-10-13T12:59:15;13.95;;;12.60;;
53040;SDS011;39326;42.650;23.248;2022-10-13T13:01:42;13.50;;;12.37;;
53040;SDS011;39326;42.650;23.248;2022-10-13T13:04:15;13.47;;;12.07;;
53040;SDS011;39326;42.650;23.248;2022-10-13T13:06:59;12.07;;;11.07;;
53040;SDS011;39326;42.650;23.248;2022-10-13T13:09:27;12.73;;;11.57;;
53040;SDS011;39326;42.650;23.248;2022-10-13T13:14:33;11.68;;;10.57;;
53040;SDS011;39326;42.650;23.248;2022-10-13T13:17:11;11.43;;;10.23;;
53040;SDS011;39326;42.650;23.248;2022-10-13T13:19:44;12.47;;;10.60;;
53040;SDS011;39326;42.650;23.248;2022-10-13T13:22:13;10.45;;;9.57;;
53040;SDS011;39326;42.650;23.248;2022-10-13T13:24:40;11.05;;;9.98;;
53040;SDS011;39326;42.650;23.248;2022-10-13T13:29:40;10.40;;;8.83;;
53040;SDS011;39326;42.650;23.248;2022-10-13T13:32:05;11.17;;;10.17;;
53040;SDS011;39326;42.650;23.248;2022-10-13T13:34:33;13.50;;;10.47;;
53040;SDS011;39326;42.650;23.248;2022-10-13T13:36:59;12.90;;;10.48;;
53040;SDS011;39326;42.650;23.248;2022-10-13T13:39:26;14.73;;;13.47;;
53040;SDS011;39326;42.650;23.248;2022-10-13T13:41:51;15.43;;;14.13;;
53040;SDS011;39326;42.650;23.248;2022-10-13T13:44:16;12.70;;;11.63;;
53040;SDS011;39326;42.650;23.248;2022-10-13T13:46:42;14.67;;;12.73;;
53040;SDS011;39326;42.650;23.248;2022-10-13T13:49:07;14.23;;;12.80;;
53040;SDS011;39326;42.650;23.248;2022-10-13T13:51:34;13.37;;;12.13;;
53040;SDS011;39326;42.650;23.248;2022-10-13T13:54:00;13.73;;;12.53;;
53040;SDS011;39326;42.650;23.248;2022-10-13T13:56:25;15.32;;;13.02;;
53040;SDS011;39326;42.650;23.248;2022-10-13T13:58:51;14.07;;;12.67;;
53040;SDS011;39326;42.650;23.248;2022-10-13T14:01:16;15.03;;;12.63;;
53040;SDS011;39326;42.650;23.248;2022-10-13T14:03:41;13.82;;;12.57;;
53040;SDS011;39326;42.650;23.248;2022-10-13T14:06:07;13.70;;;12.27;;
53040;SDS011;39326;42.650;23.248;2022-10-13T14:08:33;14.00;;;12.77;;
53040;SDS011;39326;42.650;23.248;2022-10-13T14:10:59;12.73;;;11.47;;
53040;SDS011;39326;42.650;23.248;2022-10-13T14:13:29;14.10;;;12.60;;
53040;SDS011;39326;42.650;23.248;2022-10-13T14:15:57;15.77;;;13.43;;
53040;SDS011;39326;42.650;23.248;2022-10-13T14:18:24;15.20;;;13.57;;
53040;SDS011;39326;42.650;23.248;2022-10-13T14:20:50;14.50;;;13.07;;
53040;SDS011;39326;42.650;23.248;2022-10-13T14:23:15;14.27;;;12.47;;
53040;SDS011;39326;42.650;23.248;2022-10-13T14:25:41;13.73;;;11.90;;
53040;SDS011;39326;42.650;23.248;2022-10-13T14:28:06;14.50;;;13.10;;
53040;SDS011;39326;42.650;23.248;2022-10-13T14:30:32;14.53;;;12.93;;
53040;SDS011;39326;42.650;23.248;2022-10-13T14:32:57;13.32;;;11.38;;
53040;SDS011;39326;42.650;23.248;2022-10-13T14:35:24;13.80;;;12.33;;
53040;SDS011;39326;42.650;23.248;2022-10-13T14:37:49;14.53;;;11.67;;
53040;SDS011;39326;42.650;23.248;2022-10-13T14:40:15;15.30;;;12.40;;
53040;SDS011;39326;42.650;23.248;2022-10-13T14:42:40;13.17;;;11.93;;
53040;SDS011;39326;42.650;23.248;2022-10-13T14:45:06;13.13;;;11.90;;
53040;SDS011;39326;42.650;23.248;2022-10-13T14:47:33;15.03;;;12.57;;
53040;SDS011;39326;42.650;23.248;2022-10-13T14:49:58;13.90;;;12.40;;
53040;SDS011;39326;42.650;23.248;2022-10-13T14:52:26;13.50;;;12.13;;
53040;SDS011;39326;42.650;23.248;2022-10-13T14:54:51;12.33;;;10.93;;
53040;SDS011;39326;42.650;23.248;2022-10-13T14:57:17;13.10;;;11.80;;
53040;SDS011;39326;42.650;23.248;2022-10-13T14:59:42;15.93;;;13.43;;
53040;SDS011;39326;42.650;23.248;2022-10-13T15:02:11;15.38;;;13.65;;
53040;SDS011;39326;42.650;23.248;2022-10-13T15:04:37;24.50;;;21.83;;
53040;SDS011;39326;42.650;23.248;2022-10-13T15:07:03;19.70;;;17.60;;
53040;SDS011;39326;42.650;23.248;2022-10-13T15:09:28;15.90;;;14.30;;
53040;SDS011;39326;42.650;23.248;2022-10-13T15:11:54;16.47;;;14.37;;
53040;SDS011;39326;42.650;23.248;2022-10-13T15:14:19;13.07;;;11.57;;
53040;SDS011;39326;42.650;23.248;2022-10-13T15:16:45;18.23;;;12.37;;
53040;SDS011;39326;42.650;23.248;2022-10-13T15:19:10;16.60;;;11.90;;
53040;SDS011;39326;42.650;23.248;2022-10-13T15:21:35;12.10;;;10.40;;
53040;SDS011;39326;42.650;23.248;2022-10-13T15:24:01;12.20;;;10.53;;
53040;SDS011;39326;42.650;23.248;2022-10-13T15:26:26;13.10;;;10.13;;
53040;SDS011;39326;42.650;23.248;2022-10-13T15:28:52;11.67;;;10.47;;
53040;SDS011;39326;42.650;23.248;2022-10-13T15:31:18;10.87;;;9.47;;
53040;SDS011;39326;42.650;23.248;2022-10-13T15:33:46;19.37;;;10.83;;
53040;SDS011;39326;42.650;23.248;2022-10-13T15:36:13;12.77;;;11.40;;
53040;SDS011;39326;42.650;23.248;2022-10-13T15:38:39;12.97;;;11.20;;
53040;SDS011;39326;42.650;23.248;2022-10-13T15:41:04;16.10;;;12.23;;
53040;SDS011;39326;42.650;23.248;2022-10-13T15:43:31;14.47;;;11.80;;
53040;SDS011;39326;42.650;23.248;2022-10-13T15:46:01;14.13;;;11.10;;
53040;SDS011;39326;42.650;23.248;2022-10-13T15:48:31;15.83;;;12.87;;
53040;SDS011;39326;42.650;23.248;2022-10-13T15:50:57;12.73;;;11.30;;
53040;SDS011;39326;42.650;23.248;2022-10-13T15:53:23;11.87;;;10.27;;
53040;SDS011;39326;42.650;23.248;2022-10-13T15:55:48;14.30;;;11.07;;
53040;SDS011;39326;42.650;23.248;2022-10-13T15:58:14;14.50;;;11.57;;
53040;SDS011;39326;42.650;23.248;2022-10-13T16:00:40;11.30;;;10.10;;
53040;SDS011;39326;42.650;23.248;2022-10-13T16:03:09;11.00;;;9.90;;
53040;SDS011;39326;42.650;23.248;2022-10-13T16:05:38;11.00;;;9.83;;
53040;SDS011;39326;42.650;23.248;2022-10-13T16:08:05;10.80;;;9.70;;
53040;SDS011;39326;42.650;23.248;2022-10-13T16:10:30;9.77;;;8.83;;
53040;SDS011;39326;42.650;23.248;2022-10-13T16:12:56;10.20;;;9.00;;